Time;durP1;ratioP1;P1;durP2;ratioP2;P2;SDS_P1;SDS_P2;PMS_P1;PMS_P2;Temp;Humidity;BMP_temperature;BMP_pressure;BME280_temperature;BME280_humidity;BME280_pressure;Samples;Min_cycle;Max_cycle;Signal;HPM_P1;HPM_P2
2021/11/29 00:01:09;;;;;;;1.37;0.50;;;;;;;;;;5042090;28;20188;-74
2021/11/29 00:03:34;;;;;;;2.40;0.40;;;;;;;;;;5042499;28;20181;-74
2021/11/29 00:06:00;;;;;;;2.10;0.50;;;;;;;;;;5039054;28;20565;-74
2021/11/29 00:08:25;;;;;;;1.90;0.70;;;;;;;;;;5044055;28;20565;-75
2021/11/29 00:10:50;;;;;;;1.47;0.60;;;;;;;;;;5045318;28;20181;-75
2021/11/29 00:13:16;;;;;;;1.30;0.40;;;;;;;;;;5041246;28;20655;-74
2021/11/29 00:15:41;;;;;;;4.40;0.73;;;;;;;;;;5049196;28;20237;-75
2021/11/29 00:18:06;;;;;;;3.50;0.77;;;;;;;;;;5050273;28;20193;-76
2021/11/29 00:20:31;;;;;;;1.87;0.50;;;;;;;;;;5041083;28;20177;-75
2021/11/29 00:22:57;;;;;;;2.57;0.50;;;;;;;;;;5027113;28;20588;-75
2021/11/29 00:25:23;;;;;;;2.00;0.40;;;;;;;;;;5042603;28;20216;-75
2021/11/29 00:27:48;;;;;;;3.70;1.13;;;;;;;;;;5026652;28;20592;-75
2021/11/29 00:30:14;;;;;;;0.77;0.50;;;;;;;;;;5043112;28;20178;-75
2021/11/29 00:32:39;;;;;;;3.87;0.63;;;;;;;;;;5010079;28;20835;-75
2021/11/29 00:35:05;;;;;;;3.13;0.80;;;;;;;;;;5034581;28;20170;-75
2021/11/29 00:37:30;;;;;;;1.07;0.50;;;;;;;;;;5033886;28;20240;-75
2021/11/29 00:39:55;;;;;;;0.70;0.50;;;;;;;;;;5036870;28;20170;-75
2021/11/29 00:42:21;;;;;;;2.50;0.40;;;;;;;;;;5037651;28;20197;-76
2021/11/29 00:44:46;;;;;;;0.53;0.30;;;;;;;;;;5037200;28;20235;-76
2021/11/29 00:47:11;;;;;;;1.37;0.50;;;;;;;;;;5021228;28;20229;-75
2021/11/29 00:49:37;;;;;;;0.50;0.43;;;;;;;;;;5039064;28;20235;-75
2021/11/29 00:52:02;;;;;;;0.57;0.47;;;;;;;;;;5039565;28;20585;-75
2021/11/29 00:54:28;;;;;;;1.77;0.40;;;;;;;;;;5036481;28;20209;-75
2021/11/29 00:56:53;;;;;;;0.37;0.20;;;;;;;;;;5020306;28;20206;-76
2021/11/29 00:59:18;;;;;;;0.43;0.30;;;;;;;;;;5037385;28;20207;-75
2021/11/29 01:01:44;;;;;;;2.73;0.43;;;;;;;;;;5035130;28;20201;-75
2021/11/29 01:04:09;;;;;;;0.47;0.40;;;;;;;;;;5019744;28;20913;-75
2021/11/29 01:06:35;;;;;;;0.37;0.27;;;;;;;;;;5034518;28;20288;-75
2021/11/29 01:09:00;;;;;;;2.13;0.60;;;;;;;;;;5037036;28;20663;-75
2021/11/29 01:11:25;;;;;;;0.30;0.30;;;;;;;;;;5021659;28;20197;-75
2021/11/29 01:13:50;;;;;;;2.50;0.40;;;;;;;;;;5035920;28;20874;-75
2021/11/29 01:16:16;;;;;;;0.77;0.30;;;;;;;;;;5040043;28;20201;-75
2021/11/29 01:18:41;;;;;;;0.60;0.40;;;;;;;;;;5036639;28;20188;-74
2021/11/29 01:21:06;;;;;;;1.67;0.47;;;;;;;;;;5036865;28;20212;-74
2021/11/29 01:23:31;;;;;;;0.80;0.60;;;;;;;;;;5019212;28;20181;-74
2021/11/29 01:25:56;;;;;;;2.73;0.60;;;;;;;;;;5035421;28;20576;-75
2021/11/29 01:28:22;;;;;;;0.50;0.40;;;;;;;;;;5035449;28;20190;-74
2021/11/29 01:30:48;;;;;;;2.27;0.63;;;;;;;;;;5038794;28;20178;-74
2021/11/29 01:33:13;;;;;;;0.37;0.30;;;;;;;;;;5037068;28;20196;-75
2021/11/29 01:35:39;;;;;;;0.43;0.40;;;;;;;;;;5018188;28;20878;-75
2021/11/29 01:38:04;;;;;;;0.90;0.30;;;;;;;;;;5020126;28;20713;-74
2021/11/29 01:40:29;;;;;;;3.00;1.57;;;;;;;;;;5037109;28;20190;-74
2021/11/29 01:43:03;;;;;;;0.60;0.60;;;;;;;;;;5036955;28;20201;-76
2021/11/29 01:45:30;;;;;;;3.20;1.40;;;;;;;;;;5015044;28;20193;-76
2021/11/29 01:47:55;;;;;;;4.23;0.90;;;;;;;;;;5032979;28;20185;-76
2021/11/29 01:50:20;;;;;;;2.90;1.00;;;;;;;;;;5018567;28;20181;-76
2021/11/29 01:52:46;;;;;;;1.07;0.97;;;;;;;;;;5034907;28;20296;-73
2021/11/29 01:55:11;;;;;;;2.73;1.43;;;;;;;;;;5035859;28;20186;-73
2021/11/29 01:57:37;;;;;;;3.20;1.23;;;;;;;;;;5038397;28;20666;-73
2021/11/29 02:00:03;;;;;;;5.47;1.53;;;;;;;;;;5035361;28;20182;-73
2021/11/29 02:02:28;;;;;;;4.03;2.30;;;;;;;;;;5034004;28;20205;-75
2021/11/29 02:04:54;;;;;;;2.77;1.70;;;;;;;;;;5036559;28;20181;-76
2021/11/29 02:07:20;;;;;;;3.23;1.80;;;;;;;;;;5033501;28;20197;-74
2021/11/29 02:09:45;;;;;;;2.87;1.57;;;;;;;;;;5018936;28;20240;-74
2021/11/29 02:12:10;;;;;;;3.60;1.70;;;;;;;;;;5034289;28;20667;-74
2021/11/29 02:14:37;;;;;;;2.67;1.57;;;;;;;;;;5034664;28;20189;-73
2021/11/29 02:17:06;;;;;;;1.80;1.70;;;;;;;;;;5037923;28;20224;-73
2021/11/29 02:19:35;;;;;;;2.23;1.73;;;;;;;;;;5034620;28;20202;-74
2021/11/29 02:22:00;;;;;;;2.07;1.67;;;;;;;;;;5033000;28;20311;-72
2021/11/29 02:24:25;;;;;;;2.80;1.40;;;;;;;;;;5016408;28;20794;-72
2021/11/29 02:26:50;;;;;;;3.03;1.80;;;;;;;;;;5034243;28;20731;-72
2021/11/29 02:29:16;;;;;;;1.90;1.03;;;;;;;;;;5034026;28;20201;-72
2021/11/29 02:31:43;;;;;;;1.40;1.30;;;;;;;;;;5034421;28;20209;-71
2021/11/29 02:34:15;;;;;;;2.77;2.10;;;;;;;;;;5034512;28;20230;-71
2021/11/29 02:36:40;;;;;;;2.07;0.97;;;;;;;;;;5038284;28;20223;-72
2021/11/29 02:39:06;;;;;;;1.53;1.30;;;;;;;;;;5019875;28;20244;-72
2021/11/29 02:41:31;;;;;;;1.27;1.10;;;;;;;;;;5018015;28;20227;-75
2021/11/29 02:43:57;;;;;;;2.03;1.20;;;;;;;;;;5041824;28;20181;-74
2021/11/29 02:46:22;;;;;;;2.30;1.13;;;;;;;;;;5040997;28;20862;-75
2021/11/29 02:48:48;;;;;;;2.00;1.23;;;;;;;;;;5043545;28;20183;-74
2021/11/29 02:51:18;;;;;;;1.80;1.00;;;;;;;;;;5042506;28;20236;-75
2021/11/29 02:53:43;;;;;;;1.60;0.80;;;;;;;;;;5036399;28;20599;-75
2021/11/29 02:56:08;;;;;;;3.40;1.10;;;;;;;;;;5016465;28;20205;-74
2021/11/29 02:58:34;;;;;;;1.37;0.80;;;;;;;;;;5037593;28;20228;-75
2021/11/29 03:00:59;;;;;;;1.00;0.70;;;;;;;;;;5033519;28;20381;-75
2021/11/29 03:03:24;;;;;;;5.73;1.73;;;;;;;;;;5035118;28;20200;-75
2021/11/29 03:05:49;;;;;;;4.77;0.70;;;;;;;;;;5016999;28;20671;-74
2021/11/29 03:08:14;;;;;;;0.90;0.50;;;;;;;;;;5035319;28;20216;-74
2021/11/29 03:10:39;;;;;;;2.27;0.60;;;;;;;;;;5037741;28;20569;-74
2021/11/29 03:13:05;;;;;;;0.60;0.50;;;;;;;;;;5033170;28;20199;-74
2021/11/29 03:15:30;;;;;;;1.87;0.43;;;;;;;;;;5036088;28;20190;-74
2021/11/29 03:17:55;;;;;;;0.60;0.47;;;;;;;;;;5034778;28;20594;-74
2021/11/29 03:20:20;;;;;;;2.93;0.60;;;;;;;;;;5018162;28;20173;-74
2021/11/29 03:22:46;;;;;;;0.80;0.43;;;;;;;;;;5017550;28;20236;-74
2021/11/29 03:25:11;;;;;;;1.90;0.60;;;;;;;;;;5031491;28;20775;-74
2021/11/29 03:27:37;;;;;;;1.03;0.30;;;;;;;;;;5036678;28;20178;-77
2021/11/29 03:30:04;;;;;;;0.50;0.40;;;;;;;;;;5035994;28;20193;-75
2021/11/29 03:32:29;;;;;;;1.43;0.60;;;;;;;;;;5035125;28;20213;-75
2021/11/29 03:34:54;;;;;;;1.10;0.83;;;;;;;;;;5032930;28;20185;-75
2021/11/29 03:37:19;;;;;;;2.77;0.77;;;;;;;;;;5033426;28;20756;-76
2021/11/29 03:39:45;;;;;;;2.17;1.13;;;;;;;;;;5033432;28;20201;-76
2021/11/29 03:42:10;;;;;;;2.37;1.40;;;;;;;;;;5031890;28;20197;-74
2021/11/29 03:44:36;;;;;;;1.80;1.20;;;;;;;;;;5035741;28;20184;-74
2021/11/29 03:47:02;;;;;;;3.40;1.70;;;;;;;;;;5034644;28;20196;-74
2021/11/29 03:49:27;;;;;;;3.13;1.57;;;;;;;;;;5033429;28;20190;-74
2021/11/29 03:51:53;;;;;;;2.23;1.67;;;;;;;;;;5033368;28;20250;-74
2021/11/29 03:54:18;;;;;;;4.30;1.73;;;;;;;;;;5034138;28;20189;-76
2021/11/29 03:56:44;;;;;;;5.57;2.33;;;;;;;;;;5033650;28;20340;-74
2021/11/29 03:59:09;;;;;;;3.57;2.00;;;;;;;;;;5037161;28;20177;-74
2021/11/29 04:01:35;;;;;;;3.40;2.00;;;;;;;;;;5033903;28;20201;-75
2021/11/29 04:04:03;;;;;;;5.50;2.23;;;;;;;;;;5030653;28;20731;-74
2021/11/29 04:06:29;;;;;;;4.00;1.73;;;;;;;;;;5020253;28;20331;-75
2021/11/29 04:08:54;;;;;;;7.03;1.87;;;;;;;;;;5019676;28;20691;-75
2021/11/29 04:11:20;;;;;;;2.83;1.80;;;;;;;;;;5034706;28;20209;-75
2021/11/29 04:13:45;;;;;;;2.83;1.30;;;;;;;;;;5020059;28;20659;-75
2021/11/29 04:16:13;;;;;;;6.80;2.27;;;;;;;;;;5042250;28;20845;-75
2021/11/29 04:18:38;;;;;;;3.07;1.53;;;;;;;;;;5039419;28;20907;-75
2021/11/29 04:21:05;;;;;;;8.40;2.00;;;;;;;;;;5038134;28;20261;-75
2021/11/29 04:23:31;;;;;;;3.57;1.93;;;;;;;;;;5038788;28;20547;-74
2021/11/29 04:25:58;;;;;;;3.00;1.97;;;;;;;;;;5036550;28;20189;-73
2021/11/29 04:28:23;;;;;;;3.17;1.87;;;;;;;;;;5036676;28;20218;-73
2021/11/29 04:30:49;;;;;;;3.97;2.20;;;;;;;;;;5037399;28;20196;-75
2021/11/29 04:33:14;;;;;;;3.00;2.00;;;;;;;;;;5039017;28;20189;-75
2021/11/29 04:35:40;;;;;;;4.23;2.50;;;;;;;;;;5017717;28;20636;-75
2021/11/29 04:38:05;;;;;;;7.13;3.83;;;;;;;;;;5035315;28;20303;-74
2021/11/29 04:40:30;;;;;;;4.23;3.00;;;;;;;;;;5038069;28;20178;-75
2021/11/29 04:42:56;;;;;;;6.37;3.40;;;;;;;;;;5038056;28;20217;-75
2021/11/29 04:45:21;;;;;;;4.83;3.10;;;;;;;;;;5039701;28;20208;-75
2021/11/29 04:47:46;;;;;;;4.97;3.93;;;;;;;;;;5041484;28;20206;-75
2021/11/29 04:50:11;;;;;;;4.73;3.83;;;;;;;;;;5038433;28;20166;-77
2021/11/29 04:52:37;;;;;;;6.57;3.77;;;;;;;;;;5019488;28;20197;-74
2021/11/29 04:55:02;;;;;;;4.43;4.00;;;;;;;;;;5020479;28;20193;-74
2021/11/29 04:57:27;;;;;;;6.37;3.20;;;;;;;;;;5041132;28;20217;-74
2021/11/29 04:59:54;;;;;;;4.83;3.00;;;;;;;;;;5023562;28;20545;-74
2021/11/29 05:02:19;;;;;;;5.73;2.37;;;;;;;;;;5038015;28;20197;-74
2021/11/29 05:04:48;;;;;;;5.80;2.27;;;;;;;;;;5038159;28;20178;-74
2021/11/29 05:07:14;;;;;;;4.07;2.13;;;;;;;;;;5035799;28;20196;-74
2021/11/29 05:09:41;;;;;;;3.07;2.10;;;;;;;;;;5038652;28;20724;-74
2021/11/29 05:12:07;;;;;;;5.77;2.33;;;;;;;;;;5043041;28;20585;-75
2021/11/29 05:14:32;;;;;;;2.80;1.87;;;;;;;;;;5026907;28;20186;-75
2021/11/29 05:16:57;;;;;;;1.93;1.60;;;;;;;;;;5039071;28;20496;-74
2021/11/29 05:19:22;;;;;;;4.10;2.07;;;;;;;;;;5035965;28;20205;-74
2021/11/29 05:21:48;;;;;;;5.53;1.83;;;;;;;;;;5020306;28;20709;-75
2021/11/29 05:24:13;;;;;;;5.23;2.00;;;;;;;;;;5018573;28;20203;-75
2021/11/29 05:26:39;;;;;;;3.47;1.83;;;;;;;;;;5019907;28;20697;-75
2021/11/29 05:29:04;;;;;;;3.67;2.27;;;;;;;;;;5034893;28;20212;-75
2021/11/29 05:31:29;;;;;;;5.07;2.93;;;;;;;;;;5035728;28;20207;-75
2021/11/29 05:33:55;;;;;;;2.27;1.80;;;;;;;;;;5037131;28;20691;-75
2021/11/29 05:36:20;;;;;;;5.83;2.00;;;;;;;;;;5044129;28;20655;-75
2021/11/29 05:38:45;;;;;;;5.07;2.00;;;;;;;;;;5035456;28;20174;-75
2021/11/29 05:41:11;;;;;;;6.27;2.63;;;;;;;;;;5035075;28;20193;-75
2021/11/29 05:43:36;;;;;;;6.03;1.90;;;;;;;;;;5033694;28;20193;-74
2021/11/29 05:46:01;;;;;;;4.97;1.77;;;;;;;;;;5035852;28;20352;-74
2021/11/29 05:48:29;;;;;;;2.07;1.50;;;;;;;;;;5035185;28;20331;-75
2021/11/29 05:50:54;;;;;;;3.07;1.57;;;;;;;;;;5017245;28;20178;-75
2021/11/29 05:53:19;;;;;;;2.53;1.40;;;;;;;;;;5032586;28;20555;-75
2021/11/29 05:55:45;;;;;;;3.60;1.57;;;;;;;;;;5032038;28;20255;-75
2021/11/29 05:58:10;;;;;;;2.33;1.87;;;;;;;;;;5034118;28;20588;-74
2021/11/29 06:00:37;;;;;;;3.23;1.90;;;;;;;;;;5037895;28;20173;-74
2021/11/29 06:03:03;;;;;;;2.20;1.47;;;;;;;;;;5016059;28;20209;-74
2021/11/29 06:05:28;;;;;;;3.67;2.20;;;;;;;;;;5032992;28;20253;-74
2021/11/29 06:07:54;;;;;;;6.40;1.97;;;;;;;;;;5032499;28;20525;-74
2021/11/29 06:10:19;;;;;;;7.90;1.40;;;;;;;;;;5019180;28;20181;-75
2021/11/29 06:12:45;;;;;;;7.20;1.27;;;;;;;;;;5036224;28;20259;-75
2021/11/29 06:15:11;;;;;;;4.33;1.50;;;;;;;;;;5034096;28;20227;-74
2021/11/29 06:17:37;;;;;;;2.73;1.17;;;;;;;;;;5037143;28;20205;-74
2021/11/29 06:20:03;;;;;;;3.67;1.37;;;;;;;;;;5034835;28;20642;-74
2021/11/29 06:22:28;;;;;;;5.73;1.63;;;;;;;;;;5033083;28;20703;-74
2021/11/29 06:24:53;;;;;;;4.93;2.13;;;;;;;;;;5016436;28;21082;-75
2021/11/29 06:27:18;;;;;;;3.77;1.13;;;;;;;;;;5035089;28;20200;-74
2021/11/29 06:29:44;;;;;;;5.70;1.30;;;;;;;;;;5017159;28;20190;-74
2021/11/29 06:32:10;;;;;;;4.33;1.70;;;;;;;;;;5034700;28;20268;-74
2021/11/29 06:34:35;;;;;;;7.77;1.77;;;;;;;;;;5033761;28;20265;-75
2021/11/29 06:37:01;;;;;;;6.97;2.23;;;;;;;;;;5031370;28;20209;-75
2021/11/29 06:39:28;;;;;;;7.47;1.83;;;;;;;;;;5035276;28;20181;-75
2021/11/29 06:41:54;;;;;;;3.80;1.00;;;;;;;;;;5032253;28;20264;-75
2021/11/29 06:44:19;;;;;;;3.97;1.17;;;;;;;;;;5016274;28;20182;-75
2021/11/29 06:46:44;;;;;;;5.87;1.40;;;;;;;;;;5037351;28;20194;-74
2021/11/29 06:49:09;;;;;;;4.27;1.30;;;;;;;;;;5017975;28;20221;-75
2021/11/29 06:51:34;;;;;;;5.77;1.43;;;;;;;;;;5032929;28;20208;-75
2021/11/29 06:54:00;;;;;;;4.97;1.20;;;;;;;;;;5033349;28;20272;-75
2021/11/29 06:56:26;;;;;;;6.17;1.37;;;;;;;;;;5032174;28;20209;-75
2021/11/29 06:58:51;;;;;;;10.97;3.10;;;;;;;;;;5035580;28;20694;-74
2021/11/29 07:01:16;;;;;;;5.03;1.33;;;;;;;;;;5034653;28;20564;-75
2021/11/29 07:03:42;;;;;;;3.17;1.20;;;;;;;;;;5033304;28;20609;-74
2021/11/29 07:06:08;;;;;;;4.53;1.30;;;;;;;;;;5031866;28;20275;-75
2021/11/29 07:08:33;;;;;;;5.80;1.30;;;;;;;;;;5033036;28;20694;-75
2021/11/29 07:10:58;;;;;;;8.53;1.23;;;;;;;;;;5015543;28;20182;-75
2021/11/29 07:13:23;;;;;;;3.50;1.20;;;;;;;;;;5028677;28;20674;-75
2021/11/29 07:15:49;;;;;;;2.27;1.00;;;;;;;;;;5035086;28;20245;-75
2021/11/29 07:18:14;;;;;;;2.63;1.30;;;;;;;;;;5019430;28;20193;-75
2021/11/29 07:20:40;;;;;;;3.10;1.20;;;;;;;;;;5021105;28;20185;-75
2021/11/29 07:23:05;;;;;;;2.80;0.90;;;;;;;;;;5033555;28;20751;-75
2021/11/29 07:25:31;;;;;;;7.50;0.90;;;;;;;;;;5035871;28;20181;-74
2021/11/29 07:27:56;;;;;;;3.63;1.10;;;;;;;;;;5035117;28;20184;-75
2021/11/29 07:30:22;;;;;;;4.83;0.90;;;;;;;;;;5034220;28;20182;-75
2021/11/29 07:32:48;;;;;;;3.43;1.13;;;;;;;;;;5034857;28;20201;-75
2021/11/29 07:35:13;;;;;;;6.57;1.53;;;;;;;;;;5017796;28;20192;-75
2021/11/29 07:37:40;;;;;;;8.80;1.60;;;;;;;;;;5035090;28;20210;-75
2021/11/29 07:40:06;;;;;;;7.33;1.43;;;;;;;;;;5041940;28;20185;-75
2021/11/29 07:42:31;;;;;;;6.83;0.93;;;;;;;;;;5041325;28;20212;-76
2021/11/29 07:44:57;;;;;;;4.03;1.00;;;;;;;;;;5035964;28;20557;-73
2021/11/29 07:47:23;;;;;;;4.33;0.80;;;;;;;;;;5016767;28;20213;-76
2021/11/29 07:49:48;;;;;;;5.87;0.90;;;;;;;;;;5038848;28;20244;-73
2021/11/29 07:52:14;;;;;;;5.53;1.43;;;;;;;;;;5039250;28;20864;-75
2021/11/29 07:54:39;;;;;;;4.50;1.17;;;;;;;;;;5020051;28;20268;-74
2021/11/29 07:57:05;;;;;;;9.30;1.20;;;;;;;;;;5039900;28;20209;-74
2021/11/29 07:59:31;;;;;;;6.70;1.53;;;;;;;;;;5038071;28;20573;-74
2021/11/29 08:01:58;;;;;;;3.23;0.97;;;;;;;;;;5035973;28;20196;-74
2021/11/29 08:04:24;;;;;;;12.43;2.40;;;;;;;;;;5036699;28;20710;-73
2021/11/29 08:06:49;;;;;;;3.80;1.23;;;;;;;;;;5035903;28;20182;-74
2021/11/29 08:09:14;;;;;;;7.77;1.50;;;;;;;;;;5020389;28;20203;-73
2021/11/29 08:11:39;;;;;;;7.23;1.53;;;;;;;;;;5019689;28;20220;-74
2021/11/29 08:14:05;;;;;;;3.97;1.03;;;;;;;;;;5036372;28;20183;-74
2021/11/29 08:16:30;;;;;;;4.50;1.43;;;;;;;;;;5040669;28;20205;-76
2021/11/29 08:18:55;;;;;;;5.73;1.20;;;;;;;;;;5039615;28;20174;-74
2021/11/29 08:21:20;;;;;;;6.30;2.07;;;;;;;;;;5034051;28;20205;-76
2021/11/29 08:23:45;;;;;;;6.23;1.40;;;;;;;;;;5021334;28;20181;-74
2021/11/29 08:26:11;;;;;;;2.57;1.00;;;;;;;;;;5035199;28;20616;-74
2021/11/29 08:28:36;;;;;;;3.17;1.73;;;;;;;;;;5038528;28;20193;-74
2021/11/29 08:31:01;;;;;;;5.07;1.27;;;;;;;;;;5041779;28;20182;-74
2021/11/29 08:33:27;;;;;;;6.03;1.43;;;;;;;;;;5045881;28;20173;-75
2021/11/29 08:35:52;;;;;;;4.43;1.17;;;;;;;;;;5038811;28;20216;-75
2021/11/29 08:38:17;;;;;;;2.50;1.27;;;;;;;;;;5036163;28;20189;-75
2021/11/29 08:40:45;;;;;;;4.50;1.00;;;;;;;;;;5036270;28;20174;-75
2021/11/29 08:43:11;;;;;;;5.33;1.23;;;;;;;;;;5037735;28;20618;-74
2021/11/29 08:45:37;;;;;;;5.80;2.00;;;;;;;;;;5039568;28;20177;-76
2021/11/29 08:48:04;;;;;;;4.10;1.50;;;;;;;;;;5044632;28;20169;-75
2021/11/29 08:50:30;;;;;;;4.73;1.33;;;;;;;;;;5037060;28;20200;-75
2021/11/29 08:52:56;;;;;;;2.67;0.93;;;;;;;;;;5038627;28;20227;-76
2021/11/29 08:55:21;;;;;;;1.70;0.70;;;;;;;;;;5039295;28;20231;-75
2021/11/29 08:57:46;;;;;;;4.60;1.80;;;;;;;;;;5039054;28;20202;-75
2021/11/29 09:00:16;;;;;;;2.63;1.00;;;;;;;;;;5020379;28;20174;-76
2021/11/29 09:02:42;;;;;;;0.73;0.67;;;;;;;;;;5036309;28;20213;-75
2021/11/29 09:05:07;;;;;;;2.83;0.63;;;;;;;;;;5037279;28;20178;-75
2021/11/29 09:07:34;;;;;;;4.23;0.90;;;;;;;;;;5035247;28;20240;-75
2021/11/29 09:09:59;;;;;;;3.63;0.80;;;;;;;;;;5037846;28;20178;-75
2021/11/29 09:12:25;;;;;;;0.97;0.50;;;;;;;;;;5037829;28;20627;-75
2021/11/29 09:14:50;;;;;;;1.07;0.50;;;;;;;;;;5021455;28;20208;-75
2021/11/29 09:17:15;;;;;;;2.40;0.70;;;;;;;;;;5041966;28;20520;-75
2021/11/29 09:19:40;;;;;;;2.73;1.17;;;;;;;;;;5015167;28;20284;-75
2021/11/29 09:22:06;;;;;;;2.97;0.70;;;;;;;;;;5037600;28;20210;-75
2021/11/29 09:24:31;;;;;;;0.93;0.47;;;;;;;;;;5039564;28;20685;-74
2021/11/29 09:26:57;;;;;;;1.63;0.70;;;;;;;;;;5020273;28;20196;-75
2021/11/29 09:29:22;;;;;;;2.27;0.90;;;;;;;;;;5034322;28;20191;-75
2021/11/29 09:31:48;;;;;;;0.60;0.40;;;;;;;;;;5034847;28;20201;-74
2021/11/29 09:34:13;;;;;;;1.00;0.43;;;;;;;;;;5037702;28;20283;-74
2021/11/29 09:36:38;;;;;;;0.33;0.30;;;;;;;;;;5020629;28;20233;-74
2021/11/29 09:39:04;;;;;;;1.50;0.40;;;;;;;;;;5039201;28;20860;-74
2021/11/29 09:41:29;;;;;;;2.37;0.90;;;;;;;;;;5037145;28;20223;-74
2021/11/29 09:43:55;;;;;;;1.83;0.63;;;;;;;;;;5017590;28;20887;-74
2021/11/29 09:46:22;;;;;;;2.70;0.60;;;;;;;;;;5020175;28;20757;-74
2021/11/29 09:48:47;;;;;;;0.40;0.40;;;;;;;;;;5035737;28;20189;-74
2021/11/29 09:51:13;;;;;;;2.77;0.50;;;;;;;;;;5036489;28;20529;-74
2021/11/29 09:53:38;;;;;;;2.93;0.40;;;;;;;;;;5034500;28;20181;-74
2021/11/29 09:56:03;;;;;;;1.10;0.40;;;;;;;;;;5036744;28;20300;-75
2021/11/29 09:58:29;;;;;;;0.83;0.30;;;;;;;;;;5019096;28;20640;-75
2021/11/29 10:00:57;;;;;;;2.73;0.90;;;;;;;;;;5016966;28;20724;-74
2021/11/29 10:03:23;;;;;;;2.20;0.50;;;;;;;;;;5034821;28;20230;-75
2021/11/29 10:05:49;;;;;;;0.60;0.40;;;;;;;;;;5039199;28;20209;-75
2021/11/29 10:08:25;;;;;;;2.00;0.40;;;;;;;;;;5042711;28;20712;-74
2021/11/29 10:10:54;;;;;;;0.50;0.30;;;;;;;;;;5039342;28;20264;-74
2021/11/29 10:13:21;;;;;;;1.40;0.33;;;;;;;;;;5035534;28;20190;-74
2021/11/29 10:15:46;;;;;;;0.67;0.30;;;;;;;;;;5034755;28;20227;-74
2021/11/29 10:18:11;;;;;;;2.30;0.27;;;;;;;;;;5034625;28;20200;-74
2021/11/29 10:21:06;;;;;;;2.53;0.80;;;;;;;;;;5033531;28;20173;-74
2021/11/29 10:23:37;;;;;;;2.30;0.60;;;;;;;;;;5032953;28;20243;-74
2021/11/29 10:26:10;;;;;;;1.40;0.77;;;;;;;;;;5037920;28;20182;-74
2021/11/29 10:28:42;;;;;;;0.40;0.37;;;;;;;;;;5036463;28;20200;-74
2021/11/29 10:31:16;;;;;;;0.40;0.27;;;;;;;;;;5034760;28;20583;-74
2021/11/29 10:33:50;;;;;;;1.20;0.50;;;;;;;;;;5015981;28;20186;-75
2021/11/29 10:36:16;;;;;;;2.00;0.47;;;;;;;;;;5036763;28;20260;-75
2021/11/29 10:38:43;;;;;;;2.10;0.50;;;;;;;;;;5035157;28;20181;-75
2021/11/29 10:41:09;;;;;;;2.70;0.60;;;;;;;;;;5013868;28;20664;-76
2021/11/29 10:43:37;;;;;;;1.90;0.63;;;;;;;;;;5037830;28;20204;-75
2021/11/29 10:46:21;;;;;;;1.10;0.50;;;;;;;;;;5035787;28;20181;-75
2021/11/29 10:48:46;;;;;;;1.43;0.50;;;;;;;;;;5034608;28;20185;-76
2021/11/29 10:51:13;;;;;;;0.90;0.73;;;;;;;;;;5033232;28;20216;-76
2021/11/29 10:54:04;;;;;;;0.63;0.40;;;;;;;;;;5033500;28;20279;-76
2021/11/29 10:56:31;;;;;;;0.30;0.30;;;;;;;;;;5014194;28;20274;-76
2021/11/29 10:58:58;;;;;;;3.27;0.50;;;;;;;;;;5034619;28;20673;-75
2021/11/29 11:01:53;;;;;;;1.80;0.50;;;;;;;;;;5036628;28;20706;-75
2021/11/29 11:04:21;;;;;;;3.20;0.63;;;;;;;;;;5010353;28;20374;-76
2021/11/29 11:06:49;;;;;;;2.23;0.57;;;;;;;;;;5030953;28;20250;-76
2021/11/29 11:09:23;;;;;;;1.67;0.50;;;;;;;;;;5032365;28;20181;-76
2021/11/29 11:11:49;;;;;;;1.23;0.30;;;;;;;;;;5036154;28;20205;-77
2021/11/29 11:14:15;;;;;;;1.53;0.43;;;;;;;;;;5036508;28;20659;-77
2021/11/29 11:16:43;;;;;;;3.37;0.57;;;;;;;;;;5034234;28;20297;-75
2021/11/29 11:19:19;;;;;;;2.83;0.50;;;;;;;;;;5033852;28;20172;-77
2021/11/29 11:21:44;;;;;;;2.00;0.50;;;;;;;;;;5011814;28;20291;-76
2021/11/29 11:24:24;;;;;;;4.33;0.73;;;;;;;;;;5031560;28;20173;-77
2021/11/29 11:26:50;;;;;;;1.50;0.50;;;;;;;;;;5035745;28;20205;-77
2021/11/29 11:29:31;;;;;;;2.37;0.70;;;;;;;;;;5033881;28;20621;-77
2021/11/29 11:32:12;;;;;;;3.57;0.60;;;;;;;;;;5032476;28;20212;-76
2021/11/29 11:34:38;;;;;;;0.77;0.53;;;;;;;;;;5032170;28;20205;-76
2021/11/29 11:37:04;;;;;;;4.33;0.60;;;;;;;;;;5032459;28;20343;-77
2021/11/29 11:39:29;;;;;;;4.20;1.27;;;;;;;;;;5018076;28;20690;-77
2021/11/29 11:41:55;;;;;;;2.63;0.50;;;;;;;;;;5016086;28;20198;-76
2021/11/29 11:44:20;;;;;;;3.50;0.50;;;;;;;;;;5032188;28;20196;-77
2021/11/29 11:46:46;;;;;;;2.20;0.57;;;;;;;;;;5028964;28;20556;-76
2021/11/29 11:49:12;;;;;;;3.20;1.30;;;;;;;;;;5031537;28;20181;-76
2021/11/29 11:51:38;;;;;;;1.50;0.50;;;;;;;;;;5031707;28;20250;-76
2021/11/29 11:54:04;;;;;;;1.23;0.40;;;;;;;;;;5031786;28;20671;-76
2021/11/29 11:56:29;;;;;;;2.07;0.60;;;;;;;;;;5031246;28;20296;-76
2021/11/29 11:58:57;;;;;;;1.53;0.40;;;;;;;;;;5032347;28;20240;-76
2021/11/29 12:01:24;;;;;;;2.23;0.50;;;;;;;;;;5034086;28;20275;-76
2021/11/29 12:03:50;;;;;;;1.83;0.40;;;;;;;;;;5035713;28;20227;-76
2021/11/29 12:06:19;;;;;;;0.93;0.30;;;;;;;;;;5031606;28;20181;-75
2021/11/29 12:08:46;;;;;;;1.03;0.33;;;;;;;;;;5033043;28;20201;-75
2021/11/29 12:11:26;;;;;;;1.47;0.53;;;;;;;;;;5017765;28;20205;-77
2021/11/29 12:14:07;;;;;;;3.63;0.40;;;;;;;;;;5035700;28;20188;-76
2021/11/29 12:16:34;;;;;;;2.20;0.40;;;;;;;;;;5038004;28;20208;-76
2021/11/29 12:19:00;;;;;;;0.70;0.40;;;;;;;;;;5032671;28;20190;-79
2021/11/29 12:21:39;;;;;;;0.70;0.40;;;;;;;;;;5033503;28;20577;-77
2021/11/29 12:24:07;;;;;;;1.00;0.50;;;;;;;;;;5030335;28;20452;-76
2021/11/29 12:26:48;;;;;;;3.03;0.87;;;;;;;;;;5036166;28;20181;-76
2021/11/29 12:29:22;;;;;;;1.43;0.60;;;;;;;;;;5033788;28;21670;-75
2021/11/29 12:31:49;;;;;;;3.53;1.10;;;;;;;;;;5033738;28;20280;-76
2021/11/29 12:34:14;;;;;;;1.57;0.63;;;;;;;;;;5037545;28;20705;-77
2021/11/29 12:36:54;;;;;;;3.93;0.70;;;;;;;;;;5027389;28;20205;-76
2021/11/29 12:39:38;;;;;;;2.03;0.73;;;;;;;;;;5038935;28;20326;-76
2021/11/29 12:42:03;;;;;;;1.77;0.63;;;;;;;;;;5021652;28;20196;-76
2021/11/29 12:44:45;;;;;;;1.90;0.70;;;;;;;;;;5019260;28;20182;-76
2021/11/29 12:47:19;;;;;;;1.67;0.90;;;;;;;;;;5037896;28;20197;-76
2021/11/29 12:49:45;;;;;;;2.50;0.80;;;;;;;;;;5032323;28;20721;-76
2021/11/29 12:52:29;;;;;;;4.63;0.70;;;;;;;;;;5035162;28;20295;-75
2021/11/29 12:54:56;;;;;;;3.73;0.70;;;;;;;;;;5018656;28;20213;-77
2021/11/29 12:57:25;;;;;;;0.87;0.40;;;;;;;;;;5017957;28;20734;-76
2021/11/29 13:00:11;;;;;;;3.63;0.70;;;;;;;;;;5037615;28;20182;-75
2021/11/29 13:02:37;;;;;;;2.27;1.03;;;;;;;;;;5015638;28;20293;-76
2021/11/29 13:05:22;;;;;;;1.70;0.47;;;;;;;;;;5036096;28;20184;-77
2021/11/29 13:08:08;;;;;;;1.53;0.60;;;;;;;;;;5036004;28;20187;-76
2021/11/29 13:10:46;;;;;;;0.87;0.50;;;;;;;;;;5037999;28;20210;-77
2021/11/29 13:13:29;;;;;;;1.67;0.40;;;;;;;;;;5014337;28;20584;-76
2021/11/29 13:15:56;;;;;;;2.13;0.70;;;;;;;;;;5039768;28;20200;-75
2021/11/29 13:18:40;;;;;;;2.40;0.60;;;;;;;;;;5016304;28;20181;-76
2021/11/29 13:21:05;;;;;;;3.13;1.17;;;;;;;;;;5038056;28;20190;-75
2021/11/29 13:23:30;;;;;;;2.30;0.50;;;;;;;;;;5034360;28;20193;-76
2021/11/29 13:26:05;;;;;;;0.97;0.60;;;;;;;;;;5037609;28;20185;-76
2021/11/29 13:28:30;;;;;;;2.40;0.50;;;;;;;;;;5035630;28;20173;-75
2021/11/29 13:30:55;;;;;;;3.93;0.50;;;;;;;;;;5035693;28;20201;-76
2021/11/29 13:33:21;;;;;;;1.00;0.50;;;;;;;;;;5035648;28;20189;-75
2021/11/29 13:35:46;;;;;;;0.77;0.50;;;;;;;;;;5034388;28;20185;-75
2021/11/29 13:38:11;;;;;;;2.77;0.40;;;;;;;;;;5035962;28;20196;-75
2021/11/29 13:40:37;;;;;;;1.90;0.60;;;;;;;;;;5035286;28;20252;-76
2021/11/29 13:43:03;;;;;;;1.47;0.60;;;;;;;;;;5036805;28;20681;-75
2021/11/29 13:45:30;;;;;;;0.87;0.40;;;;;;;;;;5033251;28;20236;-76
2021/11/29 13:48:07;;;;;;;1.37;0.30;;;;;;;;;;5034104;28;20184;-76
2021/11/29 13:50:35;;;;;;;1.13;0.50;;;;;;;;;;5034460;28;20658;-76
2021/11/29 13:53:10;;;;;;;0.70;0.30;;;;;;;;;;5035593;28;20209;-76
2021/11/29 13:55:37;;;;;;;0.97;0.60;;;;;;;;;;5035160;28;20185;-76
2021/11/29 13:58:07;;;;;;;0.77;0.30;;;;;;;;;;5034331;28;20225;-77
2021/11/29 14:00:34;;;;;;;0.40;0.30;;;;;;;;;;5036150;28;20198;-77
2021/11/29 14:03:14;;;;;;;0.43;0.30;;;;;;;;;;5034494;28;20229;-77
2021/11/29 14:05:47;;;;;;;1.23;0.30;;;;;;;;;;5034533;28;20181;-76
2021/11/29 14:08:15;;;;;;;1.33;0.60;;;;;;;;;;5033838;28;20316;-76
2021/11/29 14:10:44;;;;;;;1.53;0.57;;;;;;;;;;5034635;28;20216;-76
2021/11/29 14:13:13;;;;;;;0.60;0.40;;;;;;;;;;5033406;28;20290;-76
2021/11/29 14:15:49;;;;;;;0.20;0.20;;;;;;;;;;5040496;28;20178;-76
2021/11/29 14:18:14;;;;;;;0.57;0.53;;;;;;;;;;5033033;28;20216;-76
2021/11/29 14:20:40;;;;;;;0.70;0.50;;;;;;;;;;5035002;28;20260;-76
2021/11/29 14:23:05;;;;;;;0.93;0.33;;;;;;;;;;5019378;28;20227;-76
2021/11/29 14:25:30;;;;;;;1.53;0.50;;;;;;;;;;5020049;28;20197;-76
2021/11/29 14:27:57;;;;;;;2.23;0.43;;;;;;;;;;5032633;28;20196;-76
2021/11/29 14:30:26;;;;;;;0.83;0.50;;;;;;;;;;5035455;28;20269;-75
2021/11/29 14:32:51;;;;;;;1.17;0.53;;;;;;;;;;5031778;28;20211;-76
2021/11/29 14:35:26;;;;;;;1.17;0.60;;;;;;;;;;5036462;28;20181;-77
2021/11/29 14:37:57;;;;;;;0.50;0.50;;;;;;;;;;5019209;28;20588;-77
2021/11/29 14:40:22;;;;;;;0.53;0.53;;;;;;;;;;5018214;28;20316;-74
2021/11/29 14:42:48;;;;;;;2.00;0.43;;;;;;;;;;5033770;28;20756;-75